New Hartford, Connecticut
Current Conditions -  °F | °C
As of 9:51 PM on Saturday 25 Oct 2014 (Local Time) from KBDL Reporting Station
Overcast Overcast  
Wind Chill: 58°   Ceiling: 8500
Heat Index: 58°   Visibility: 10mi
Dew Point: 43°   Wind: 8mph
Humidity: 58%   Direction: 200°SSW
Pressure: 29.55"   Gusts: NA
Location:  41.88°N, 72.98°W
Report Text: KBDL 260151Z 20007KT 10SM FEW040 OVC085 14/06 A2955 RMK AO2 SLP004 T01440061
Loading
Personal Weather Stations






























Interactive Weather Map
Tropical Storm Tracking
New forecast layout! Learn more

10-Day Weather Forecast

Advertisements
Track Severe Weather on mobile